Tougaloo, MS

2:44 AM CST on December 14, 2019 (GMT -0600)
Dinsmor | | Change Station
Active Advisory: Dense Fog Advisory

Elev 371 ft 32.42 °N, 90.17 °W | Updated 57 seconds ago

Overcast
Overcast
42.8 °F
Feels Like 43 °F
N
0
Wind Variable Wind from NW
Gusts 0.0 mph

Today
High -- | Low -- °F
--% Chance of Precip.
Yesterday
High -- | Low -- °F
Precip. -- in
Pressure 29.84 in
Visibility 6.0 miles
Clouds Mostly Cloudy 200 ft
Overcast 2400 ft
Windchill 43 °F
Dew Point 42 °F
Humidity 98%
Rainfall 0.00 in
Snow Depth Not available.
6:53 AM 4:56 PM
Waning Gibbous, 95% visible
SPECI KHKS 140815Z AUTO 00000KT 6SM BR BKN002 OVC024 06/04 A2984 RMK AO2 T00560044
Pressure 29.84 in
Visibility 6.0 miles
Clouds Mostly Cloudy 200 ft
Overcast 2400 ft
Windchill 43 °F
Dew Point 42 °F
Humidity 98%
Rainfall 0.00 in
Snow Depth Not available.
6:53 AM 4:56 PM
Waning Gibbous, 95% visible
SPECI KHKS 140815Z AUTO 00000KT 6SM BR BKN002 OVC024 06/04 A2984 RMK AO2 T00560044

Get Your Daily Forecast Email!

Thanks for signing up!

Be on the lookout for a verification email in your inbox.

You'll start receiving severe weather alerts in your inbox..

×

10-Day Weather Forecast

Almanac

Astronomy

Dec. 14, 2019 Rise Set
Actual Time
Civil Twilight
Nautical Twilight
Astronomical Twilight
Moon
Length of Visible Light
Length of Day
Tomorrow will be .
, % of the Moon is Illuminated

Today's Extremes

State Highs State Lows

Community

WunderPhotos

Category 6

Welcome to Category 6. This is the collective home for Weather Underground's featured writeups by Dr. Jeff Masters (right), Bob Henson (left), Chris Burt, and other regular contributors.

Nearby

Air Quality

  Air Quality AQ Index Pollutant
Not available.

Snow Depth

Station Depth Elevation

Earthquake Activity

City Distance Mag. Time & Date
Minimum magnitude displayed is 2.5.

Coastal Water Temperatures

Place Temperature

Stations

Nearby Weather Stations

Station Location Temp. Windchill Dew Point Humidity Wind Precip. Elev Updated Type
                   

Watches & Warnings

Dense Fog Advisory
Issued: 11:38 PM CST Dec. 13, 2019 – National Weather Service

... Dense fog advisory in effect until 9 am CST Saturday...

* what... visibility one quarter mile or less in dense fog.

* Where... portions of northeast Louisiana, central, northwest,
southwest and west central Mississippi and southeast Arkansas.

* When... until 9 am CST Saturday.

* Impacts... hazardous driving conditions due to low visibility.

Precautionary/preparedness actions...

If driving, slow down, use your headlights, and leave plenty of
distance ahead of you.